CheckWX is a tool to help pilots better visualize weather data.  It is not intended as a substitute for an official pre-flight weather briefing.

02:09:18 UTC

CYPE TAF
Peace River Airport
Peace River, Canada
TAF CYPE 190038Z 1901/1913 22008KT P6SM BKN250 RMK NXT FCST BY 190700Z

Mar-19@
01:00 UTC

Mar-19 @ 01:00 UTC

Mar-19@
13:00 UTC

Mar-19 @ 13:00 UTC

TAF CYPE 190038Z 1901/1913 22008KT P6SM BKN250 RMK NXT FCST BY 190700Z
Wind
  • 220° at 8 KTS
Cloud Levels
  • Broken at 25,000' AGL